sensor_id;sensor_type;location;lat;lon;timestamp;P1;durP1;ratioP1;P2;durP2;ratioP2
75698;SDS011;64313;51.018;13.742;2023-07-09T00:01:16;8.40;;;5.30;;
75698;SDS011;64313;51.018;13.742;2023-07-09T00:03:45;8.02;;;5.32;;
75698;SDS011;64313;51.018;13.742;2023-07-09T00:06:16;8.10;;;5.25;;
75698;SDS011;64313;51.018;13.742;2023-07-09T00:08:43;8.73;;;5.25;;
75698;SDS011;64313;51.018;13.742;2023-07-09T00:11:11;7.80;;;4.95;;
75698;SDS011;64313;51.018;13.742;2023-07-09T00:13:37;11.65;;;5.55;;
75698;SDS011;64313;51.018;13.742;2023-07-09T00:16:04;8.32;;;5.50;;
75698;SDS011;64313;51.018;13.742;2023-07-09T00:18:36;10.10;;;6.25;;
75698;SDS011;64313;51.018;13.742;2023-07-09T00:21:02;15.80;;;6.93;;
75698;SDS011;64313;51.018;13.742;2023-07-09T00:23:27;8.90;;;5.57;;
75698;SDS011;64313;51.018;13.742;2023-07-09T00:25:54;10.48;;;6.05;;
75698;SDS011;64313;51.018;13.742;2023-07-09T00:28:20;8.35;;;4.90;;
75698;SDS011;64313;51.018;13.742;2023-07-09T00:30:46;8.18;;;4.70;;
75698;SDS011;64313;51.018;13.742;2023-07-09T00:33:12;8.35;;;4.63;;
75698;SDS011;64313;51.018;13.742;2023-07-09T00:35:42;7.63;;;4.97;;
75698;SDS011;64313;51.018;13.742;2023-07-09T00:38:18;6.93;;;4.50;;
75698;SDS011;64313;51.018;13.742;2023-07-09T00:40:47;8.93;;;5.07;;
75698;SDS011;64313;51.018;13.742;2023-07-09T00:43:24;7.55;;;4.40;;
75698;SDS011;64313;51.018;13.742;2023-07-09T00:49:02;7.07;;;4.60;;
75698;SDS011;64313;51.018;13.742;2023-07-09T00:51:30;7.38;;;4.80;;
75698;SDS011;64313;51.018;13.742;2023-07-09T00:54:03;7.78;;;4.72;;
75698;SDS011;64313;51.018;13.742;2023-07-09T00:56:39;7.43;;;4.70;;
75698;SDS011;64313;51.018;13.742;2023-07-09T00:59:08;7.53;;;4.68;;
75698;SDS011;64313;51.018;13.742;2023-07-09T01:01:39;7.20;;;4.70;;
75698;SDS011;64313;51.018;13.742;2023-07-09T01:04:07;8.35;;;4.70;;
75698;SDS011;64313;51.018;13.742;2023-07-09T01:06:35;6.97;;;4.68;;
75698;SDS011;64313;51.018;13.742;2023-07-09T01:09:06;7.95;;;4.43;;
75698;SDS011;64313;51.018;13.742;2023-07-09T01:11:33;6.50;;;4.38;;
75698;SDS011;64313;51.018;13.742;2023-07-09T01:14:02;6.90;;;4.57;;
75698;SDS011;64313;51.018;13.742;2023-07-09T01:16:31;7.57;;;4.80;;
75698;SDS011;64313;51.018;13.742;2023-07-09T01:19:00;8.93;;;4.93;;
75698;SDS011;64313;51.018;13.742;2023-07-09T01:21:26;8.00;;;4.78;;
75698;SDS011;64313;51.018;13.742;2023-07-09T01:23:52;7.82;;;5.20;;
75698;SDS011;64313;51.018;13.742;2023-07-09T01:26:21;7.82;;;5.00;;
75698;SDS011;64313;51.018;13.742;2023-07-09T01:28:50;8.48;;;5.22;;
75698;SDS011;64313;51.018;13.742;2023-07-09T01:31:16;8.20;;;5.18;;
75698;SDS011;64313;51.018;13.742;2023-07-09T01:33:42;8.77;;;5.10;;
75698;SDS011;64313;51.018;13.742;2023-07-09T01:36:09;7.95;;;4.40;;
75698;SDS011;64313;51.018;13.742;2023-07-09T01:38:38;7.18;;;4.60;;
75698;SDS011;64313;51.018;13.742;2023-07-09T01:41:04;7.82;;;4.25;;
75698;SDS011;64313;51.018;13.742;2023-07-09T01:43:32;7.95;;;4.70;;
75698;SDS011;64313;51.018;13.742;2023-07-09T01:45:58;8.15;;;4.50;;
75698;SDS011;64313;51.018;13.742;2023-07-09T01:48:25;7.82;;;4.30;;
75698;SDS011;64313;51.018;13.742;2023-07-09T01:50:52;7.78;;;4.47;;
75698;SDS011;64313;51.018;13.742;2023-07-09T01:53:19;8.20;;;4.45;;
75698;SDS011;64313;51.018;13.742;2023-07-09T01:55:51;7.40;;;4.70;;
75698;SDS011;64313;51.018;13.742;2023-07-09T01:58:17;6.80;;;4.65;;
75698;SDS011;64313;51.018;13.742;2023-07-09T02:00:43;8.27;;;4.53;;
75698;SDS011;64313;51.018;13.742;2023-07-09T02:03:10;7.13;;;4.53;;
75698;SDS011;64313;51.018;13.742;2023-07-09T02:05:35;7.57;;;4.70;;
75698;SDS011;64313;51.018;13.742;2023-07-09T02:08:01;6.78;;;4.13;;
75698;SDS011;64313;51.018;13.742;2023-07-09T02:10:27;7.15;;;4.07;;
75698;SDS011;64313;51.018;13.742;2023-07-09T02:12:53;6.20;;;3.95;;
75698;SDS011;64313;51.018;13.742;2023-07-09T02:15:18;8.23;;;4.78;;
75698;SDS011;64313;51.018;13.742;2023-07-09T02:17:44;6.90;;;4.55;;
75698;SDS011;64313;51.018;13.742;2023-07-09T02:20:10;7.00;;;4.20;;
75698;SDS011;64313;51.018;13.742;2023-07-09T02:22:37;8.20;;;4.90;;
75698;SDS011;64313;51.018;13.742;2023-07-09T02:25:03;6.90;;;3.88;;
75698;SDS011;64313;51.018;13.742;2023-07-09T02:27:31;6.75;;;4.72;;
75698;SDS011;64313;51.018;13.742;2023-07-09T02:29:57;7.03;;;4.30;;
75698;SDS011;64313;51.018;13.742;2023-07-09T02:32:23;6.50;;;4.35;;
75698;SDS011;64313;51.018;13.742;2023-07-09T02:34:51;6.55;;;3.88;;
75698;SDS011;64313;51.018;13.742;2023-07-09T02:37:18;6.88;;;4.13;;
75698;SDS011;64313;51.018;13.742;2023-07-09T02:39:45;7.28;;;4.53;;
75698;SDS011;64313;51.018;13.742;2023-07-09T02:42:12;6.97;;;4.60;;
75698;SDS011;64313;51.018;13.742;2023-07-09T02:44:39;6.20;;;3.70;;
75698;SDS011;64313;51.018;13.742;2023-07-09T02:47:06;7.60;;;4.20;;
75698;SDS011;64313;51.018;13.742;2023-07-09T02:49:32;7.43;;;4.60;;
75698;SDS011;64313;51.018;13.742;2023-07-09T02:51:57;7.70;;;4.25;;
75698;SDS011;64313;51.018;13.742;2023-07-09T02:54:22;8.02;;;4.13;;
75698;SDS011;64313;51.018;13.742;2023-07-09T02:56:48;7.75;;;4.15;;
75698;SDS011;64313;51.018;13.742;2023-07-09T02:59:13;7.57;;;4.38;;
75698;SDS011;64313;51.018;13.742;2023-07-09T03:01:39;7.55;;;4.72;;
75698;SDS011;64313;51.018;13.742;2023-07-09T03:04:04;6.88;;;4.32;;
75698;SDS011;64313;51.018;13.742;2023-07-09T03:06:30;6.80;;;4.30;;
75698;SDS011;64313;51.018;13.742;2023-07-09T03:09:00;6.22;;;4.13;;
75698;SDS011;64313;51.018;13.742;2023-07-09T03:11:28;7.10;;;4.30;;
75698;SDS011;64313;51.018;13.742;2023-07-09T03:13:55;7.30;;;4.35;;
75698;SDS011;64313;51.018;13.742;2023-07-09T03:16:20;7.53;;;4.30;;
75698;SDS011;64313;51.018;13.742;2023-07-09T03:18:45;6.30;;;3.78;;
75698;SDS011;64313;51.018;13.742;2023-07-09T03:21:11;6.78;;;4.20;;
75698;SDS011;64313;51.018;13.742;2023-07-09T03:23:36;5.85;;;3.60;;
75698;SDS011;64313;51.018;13.742;2023-07-09T03:26:02;6.97;;;3.85;;
75698;SDS011;64313;51.018;13.742;2023-07-09T03:28:29;6.35;;;3.80;;
75698;SDS011;64313;51.018;13.742;2023-07-09T03:30:56;7.20;;;3.65;;
75698;SDS011;64313;51.018;13.742;2023-07-09T03:33:22;7.00;;;4.05;;
75698;SDS011;64313;51.018;13.742;2023-07-09T03:35:48;6.70;;;3.95;;
75698;SDS011;64313;51.018;13.742;2023-07-09T03:38:14;6.15;;;3.80;;
75698;SDS011;64313;51.018;13.742;2023-07-09T03:40:39;6.78;;;3.97;;
75698;SDS011;64313;51.018;13.742;2023-07-09T03:43:05;7.18;;;4.35;;
75698;SDS011;64313;51.018;13.742;2023-07-09T03:45:31;5.57;;;3.60;;
75698;SDS011;64313;51.018;13.742;2023-07-09T03:47:57;6.20;;;3.92;;
75698;SDS011;64313;51.018;13.742;2023-07-09T03:50:23;6.40;;;4.00;;
75698;SDS011;64313;51.018;13.742;2023-07-09T03:52:48;6.03;;;3.42;;
75698;SDS011;64313;51.018;13.742;2023-07-09T03:55:13;5.75;;;3.67;;
75698;SDS011;64313;51.018;13.742;2023-07-09T03:57:39;6.70;;;4.13;;
75698;SDS011;64313;51.018;13.742;2023-07-09T04:00:05;7.00;;;3.97;;
75698;SDS011;64313;51.018;13.742;2023-07-09T04:02:41;6.13;;;3.25;;
75698;SDS011;64313;51.018;13.742;2023-07-09T04:05:08;6.10;;;3.78;;
75698;SDS011;64313;51.018;13.742;2023-07-09T04:07:34;7.05;;;3.92;;
75698;SDS011;64313;51.018;13.742;2023-07-09T04:10:00;6.15;;;3.70;;
75698;SDS011;64313;51.018;13.742;2023-07-09T04:12:25;5.60;;;3.38;;
75698;SDS011;64313;51.018;13.742;2023-07-09T04:14:51;5.68;;;3.63;;
75698;SDS011;64313;51.018;13.742;2023-07-09T04:17:16;7.90;;;3.25;;
75698;SDS011;64313;51.018;13.742;2023-07-09T04:19:41;5.75;;;3.20;;
75698;SDS011;64313;51.018;13.742;2023-07-09T04:22:08;6.53;;;3.70;;
75698;SDS011;64313;51.018;13.742;2023-07-09T04:24:35;6.63;;;3.53;;
75698;SDS011;64313;51.018;13.742;2023-07-09T04:27:00;6.15;;;3.55;;
75698;SDS011;64313;51.018;13.742;2023-07-09T04:29:27;7.53;;;3.80;;
75698;SDS011;64313;51.018;13.742;2023-07-09T04:31:53;6.82;;;3.70;;
75698;SDS011;64313;51.018;13.742;2023-07-09T04:34:19;5.63;;;3.25;;
75698;SDS011;64313;51.018;13.742;2023-07-09T04:36:44;5.90;;;3.55;;
75698;SDS011;64313;51.018;13.742;2023-07-09T04:39:09;6.40;;;3.70;;
75698;SDS011;64313;51.018;13.742;2023-07-09T04:41:35;7.70;;;3.88;;
75698;SDS011;64313;51.018;13.742;2023-07-09T04:44:00;7.43;;;3.67;;
75698;SDS011;64313;51.018;13.742;2023-07-09T04:46:25;6.07;;;3.70;;
75698;SDS011;64313;51.018;13.742;2023-07-09T04:48:50;6.22;;;3.75;;
75698;SDS011;64313;51.018;13.742;2023-07-09T04:51:16;5.70;;;3.20;;
75698;SDS011;64313;51.018;13.742;2023-07-09T04:53:42;6.70;;;3.30;;
75698;SDS011;64313;51.018;13.742;2023-07-09T04:56:07;6.22;;;3.63;;
75698;SDS011;64313;51.018;13.742;2023-07-09T04:58:34;6.65;;;3.83;;
75698;SDS011;64313;51.018;13.742;2023-07-09T05:01:00;5.80;;;3.25;;
75698;SDS011;64313;51.018;13.742;2023-07-09T05:03:25;6.47;;;3.60;;
75698;SDS011;64313;51.018;13.742;2023-07-09T05:05:51;7.90;;;3.42;;
75698;SDS011;64313;51.018;13.742;2023-07-09T05:08:16;6.20;;;3.40;;
75698;SDS011;64313;51.018;13.742;2023-07-09T05:10:43;7.43;;;3.80;;
75698;SDS011;64313;51.018;13.742;2023-07-09T05:13:11;6.80;;;3.50;;
75698;SDS011;64313;51.018;13.742;2023-07-09T05:15:39;6.75;;;3.35;;
75698;SDS011;64313;51.018;13.742;2023-07-09T05:18:06;5.40;;;3.25;;
75698;SDS011;64313;51.018;13.742;2023-07-09T05:20:31;5.80;;;3.28;;
75698;SDS011;64313;51.018;13.742;2023-07-09T05:22:56;5.70;;;3.55;;
75698;SDS011;64313;51.018;13.742;2023-07-09T05:25:22;7.47;;;3.58;;
75698;SDS011;64313;51.018;13.742;2023-07-09T05:27:47;6.13;;;3.42;;
75698;SDS011;64313;51.018;13.742;2023-07-09T05:30:12;6.50;;;3.72;;
75698;SDS011;64313;51.018;13.742;2023-07-09T05:32:38;6.78;;;3.50;;
75698;SDS011;64313;51.018;13.742;2023-07-09T05:35:03;5.70;;;3.58;;
75698;SDS011;64313;51.018;13.742;2023-07-09T05:37:29;5.38;;;3.25;;
75698;SDS011;64313;51.018;13.742;2023-07-09T05:39:55;5.00;;;2.83;;
75698;SDS011;64313;51.018;13.742;2023-07-09T05:42:20;5.22;;;2.92;;
75698;SDS011;64313;51.018;13.742;2023-07-09T05:44:46;5.93;;;3.40;;
75698;SDS011;64313;51.018;13.742;2023-07-09T05:47:11;5.63;;;3.55;;
75698;SDS011;64313;51.018;13.742;2023-07-09T05:49:37;5.88;;;3.20;;
75698;SDS011;64313;51.018;13.742;2023-07-09T05:52:03;5.97;;;3.00;;
75698;SDS011;64313;51.018;13.742;2023-07-09T05:54:29;6.07;;;3.15;;
75698;SDS011;64313;51.018;13.742;2023-07-09T05:56:54;5.43;;;3.05;;
75698;SDS011;64313;51.018;13.742;2023-07-09T05:59:19;5.40;;;2.92;;
75698;SDS011;64313;51.018;13.742;2023-07-09T06:01:45;6.28;;;3.50;;
75698;SDS011;64313;51.018;13.742;2023-07-09T06:04:10;6.57;;;3.63;;
75698;SDS011;64313;51.018;13.742;2023-07-09T06:06:38;7.28;;;3.00;;
75698;SDS011;64313;51.018;13.742;2023-07-09T06:09:06;5.47;;;3.25;;
75698;SDS011;64313;51.018;13.742;2023-07-09T06:11:33;5.68;;;3.40;;
75698;SDS011;64313;51.018;13.742;2023-07-09T06:13:58;5.13;;;2.90;;
75698;SDS011;64313;51.018;13.742;2023-07-09T06:16:24;5.97;;;3.28;;
75698;SDS011;64313;51.018;13.742;2023-07-09T06:18:49;5.47;;;2.95;;
75698;SDS011;64313;51.018;13.742;2023-07-09T06:21:15;5.13;;;3.03;;
75698;SDS011;64313;51.018;13.742;2023-07-09T06:23:40;5.10;;;3.10;;
75698;SDS011;64313;51.018;13.742;2023-07-09T06:26:06;5.13;;;3.05;;
75698;SDS011;64313;51.018;13.742;2023-07-09T06:28:31;5.68;;;3.00;;
75698;SDS011;64313;51.018;13.742;2023-07-09T06:30:56;6.43;;;3.00;;
75698;SDS011;64313;51.018;13.742;2023-07-09T06:33:22;5.43;;;3.30;;
75698;SDS011;64313;51.018;13.742;2023-07-09T06:35:52;5.60;;;3.13;;
75698;SDS011;64313;51.018;13.742;2023-07-09T06:38:19;5.68;;;3.20;;
75698;SDS011;64313;51.018;13.742;2023-07-09T06:40:44;6.10;;;3.13;;
75698;SDS011;64313;51.018;13.742;2023-07-09T06:43:10;6.00;;;3.05;;
75698;SDS011;64313;51.018;13.742;2023-07-09T06:45:39;6.00;;;3.15;;
75698;SDS011;64313;51.018;13.742;2023-07-09T06:48:13;6.00;;;3.75;;
75698;SDS011;64313;51.018;13.742;2023-07-09T06:50:38;5.93;;;3.38;;
75698;SDS011;64313;51.018;13.742;2023-07-09T06:53:03;4.95;;;3.10;;
75698;SDS011;64313;51.018;13.742;2023-07-09T06:55:29;5.38;;;3.30;;
75698;SDS011;64313;51.018;13.742;2023-07-09T06:57:54;5.70;;;3.70;;
75698;SDS011;64313;51.018;13.742;2023-07-09T07:00:19;5.20;;;3.03;;
75698;SDS011;64313;51.018;13.742;2023-07-09T07:02:45;6.45;;;3.40;;
75698;SDS011;64313;51.018;13.742;2023-07-09T07:05:10;5.60;;;3.28;;
75698;SDS011;64313;51.018;13.742;2023-07-09T07:07:35;5.50;;;3.25;;
75698;SDS011;64313;51.018;13.742;2023-07-09T07:10:01;6.25;;;3.63;;
75698;SDS011;64313;51.018;13.742;2023-07-09T07:12:27;5.18;;;3.33;;
75698;SDS011;64313;51.018;13.742;2023-07-09T07:14:53;6.57;;;3.20;;
75698;SDS011;64313;51.018;13.742;2023-07-09T07:17:19;6.97;;;3.65;;
75698;SDS011;64313;51.018;13.742;2023-07-09T07:19:45;5.90;;;3.38;;
75698;SDS011;64313;51.018;13.742;2023-07-09T07:22:10;6.50;;;3.92;;
75698;SDS011;64313;51.018;13.742;2023-07-09T07:24:36;6.85;;;3.05;;
75698;SDS011;64313;51.018;13.742;2023-07-09T07:27:01;5.40;;;3.30;;
75698;SDS011;64313;51.018;13.742;2023-07-09T07:29:26;6.32;;;3.58;;
75698;SDS011;64313;51.018;13.742;2023-07-09T07:31:53;6.82;;;3.30;;
75698;SDS011;64313;51.018;13.742;2023-07-09T07:34:19;8.77;;;3.28;;
75698;SDS011;64313;51.018;13.742;2023-07-09T07:36:45;5.68;;;3.42;;
75698;SDS011;64313;51.018;13.742;2023-07-09T07:39:10;5.68;;;3.33;;
75698;SDS011;64313;51.018;13.742;2023-07-09T07:41:36;5.60;;;3.58;;
75698;SDS011;64313;51.018;13.742;2023-07-09T07:44:02;6.03;;;3.47;;
75698;SDS011;64313;51.018;13.742;2023-07-09T07:46:28;6.53;;;3.03;;
75698;SDS011;64313;51.018;13.742;2023-07-09T07:48:54;6.68;;;3.42;;
75698;SDS011;64313;51.018;13.742;2023-07-09T07:51:19;6.68;;;3.30;;
75698;SDS011;64313;51.018;13.742;2023-07-09T07:53:47;6.00;;;3.30;;
75698;SDS011;64313;51.018;13.742;2023-07-09T07:56:13;6.97;;;3.42;;
75698;SDS011;64313;51.018;13.742;2023-07-09T07:58:39;6.85;;;3.90;;
75698;SDS011;64313;51.018;13.742;2023-07-09T08:01:05;7.50;;;3.60;;
75698;SDS011;64313;51.018;13.742;2023-07-09T08:03:30;6.65;;;3.63;;
75698;SDS011;64313;51.018;13.742;2023-07-09T08:05:56;6.50;;;3.55;;
75698;SDS011;64313;51.018;13.742;2023-07-09T08:08:21;6.22;;;3.80;;
75698;SDS011;64313;51.018;13.742;2023-07-09T08:10:46;5.65;;;3.65;;
75698;SDS011;64313;51.018;13.742;2023-07-09T08:13:12;6.20;;;3.78;;
75698;SDS011;64313;51.018;13.742;2023-07-09T08:15:38;6.57;;;3.67;;
75698;SDS011;64313;51.018;13.742;2023-07-09T08:18:03;5.55;;;3.10;;
75698;SDS011;64313;51.018;13.742;2023-07-09T08:20:29;5.47;;;3.03;;
75698;SDS011;64313;51.018;13.742;2023-07-09T08:22:54;5.90;;;3.42;;
75698;SDS011;64313;51.018;13.742;2023-07-09T08:25:19;6.80;;;3.85;;
75698;SDS011;64313;51.018;13.742;2023-07-09T08:27:45;8.40;;;3.80;;
75698;SDS011;64313;51.018;13.742;2023-07-09T08:30:10;5.80;;;3.00;;
75698;SDS011;64313;51.018;13.742;2023-07-09T08:32:36;5.80;;;3.67;;
75698;SDS011;64313;51.018;13.742;2023-07-09T08:35:01;6.70;;;4.03;;
75698;SDS011;64313;51.018;13.742;2023-07-09T08:37:27;5.30;;;3.42;;
75698;SDS011;64313;51.018;13.742;2023-07-09T08:39:52;7.05;;;3.30;;
75698;SDS011;64313;51.018;13.742;2023-07-09T08:42:21;6.32;;;3.40;;
75698;SDS011;64313;51.018;13.742;2023-07-09T08:45:01;7.93;;;3.60;;
75698;SDS011;64313;51.018;13.742;2023-07-09T08:47:47;6.68;;;3.22;;
75698;SDS011;64313;51.018;13.742;2023-07-09T08:50:36;5.60;;;2.83;;
75698;SDS011;64313;51.018;13.742;2023-07-09T08:53:54;8.55;;;2.90;;
75698;SDS011;64313;51.018;13.742;2023-07-09T08:56:03;7.43;;;3.50;;
75698;SDS011;64313;51.018;13.742;2023-07-09T08:58:29;6.47;;;3.75;;
75698;SDS011;64313;51.018;13.742;2023-07-09T09:00:57;5.60;;;3.20;;
75698;SDS011;64313;51.018;13.742;2023-07-09T09:03:34;5.78;;;3.10;;
75698;SDS011;64313;51.018;13.742;2023-07-09T09:06:09;5.75;;;3.00;;
75698;SDS011;64313;51.018;13.742;2023-07-09T09:08:40;5.68;;;3.38;;
75698;SDS011;64313;51.018;13.742;2023-07-09T09:11:07;5.82;;;2.90;;
75698;SDS011;64313;51.018;13.742;2023-07-09T09:13:39;5.55;;;3.30;;
75698;SDS011;64313;51.018;13.742;2023-07-09T09:16:09;5.53;;;3.20;;
75698;SDS011;64313;51.018;13.742;2023-07-09T09:18:42;6.93;;;3.60;;
75698;SDS011;64313;51.018;13.742;2023-07-09T09:21:14;5.97;;;3.33;;
75698;SDS011;64313;51.018;13.742;2023-07-09T09:23:57;5.10;;;3.00;;
75698;SDS011;64313;51.018;13.742;2023-07-09T09:26:42;5.97;;;3.10;;
75698;SDS011;64313;51.018;13.742;2023-07-09T09:29:13;5.00;;;3.08;;
75698;SDS011;64313;51.018;13.742;2023-07-09T09:34:06;5.90;;;3.40;;
75698;SDS011;64313;51.018;13.742;2023-07-09T09:36:42;5.55;;;3.20;;
75698;SDS011;64313;51.018;13.742;2023-07-09T09:39:08;5.82;;;3.22;;
75698;SDS011;64313;51.018;13.742;2023-07-09T09:41:35;5.75;;;3.15;;
75698;SDS011;64313;51.018;13.742;2023-07-09T09:44:03;5.90;;;3.38;;
75698;SDS011;64313;51.018;13.742;2023-07-09T09:46:30;7.60;;;3.25;;
75698;SDS011;64313;51.018;13.742;2023-07-09T09:49:00;5.30;;;3.20;;
75698;SDS011;64313;51.018;13.742;2023-07-09T09:51:27;5.95;;;2.88;;
75698;SDS011;64313;51.018;13.742;2023-07-09T09:53:57;5.75;;;3.25;;
75698;SDS011;64313;51.018;13.742;2023-07-09T09:56:28;5.55;;;3.05;;
75698;SDS011;64313;51.018;13.742;2023-07-09T09:59:02;5.25;;;3.00;;
75698;SDS011;64313;51.018;13.742;2023-07-09T10:01:33;6.28;;;2.88;;
75698;SDS011;64313;51.018;13.742;2023-07-09T10:04:01;4.80;;;3.05;;
75698;SDS011;64313;51.018;13.742;2023-07-09T10:06:35;7.15;;;3.53;;
75698;SDS011;64313;51.018;13.742;2023-07-09T10:12:22;6.13;;;3.08;;
75698;SDS011;64313;51.018;13.742;2023-07-09T10:15:06;5.50;;;3.10;;
75698;SDS011;64313;51.018;13.742;2023-07-09T10:17:56;5.85;;;3.38;;
75698;SDS011;64313;51.018;13.742;2023-07-09T10:37:34;6.40;;;3.40;;
75698;SDS011;64313;51.018;13.742;2023-07-09T10:40:14;5.30;;;3.10;;
75698;SDS011;64313;51.018;13.742;2023-07-09T10:42:48;6.60;;;3.33;;
75698;SDS011;64313;51.018;13.742;2023-07-09T10:45:19;6.80;;;3.40;;
75698;SDS011;64313;51.018;13.742;2023-07-09T10:48:08;5.13;;;3.10;;
75698;SDS011;64313;51.018;13.742;2023-07-09T10:50:44;6.22;;;3.10;;
75698;SDS011;64313;51.018;13.742;2023-07-09T10:53:16;5.07;;;3.10;;
75698;SDS011;64313;51.018;13.742;2023-07-09T10:55:52;6.18;;;3.05;;
75698;SDS011;64313;51.018;13.742;2023-07-09T10:58:30;4.90;;;2.67;;
75698;SDS011;64313;51.018;13.742;2023-07-09T11:01:00;5.40;;;3.33;;
75698;SDS011;64313;51.018;13.742;2023-07-09T11:03:40;5.90;;;3.45;;
75698;SDS011;64313;51.018;13.742;2023-07-09T11:06:14;5.57;;;3.33;;
75698;SDS011;64313;51.018;13.742;2023-07-09T11:08:45;6.25;;;3.50;;
75698;SDS011;64313;51.018;13.742;2023-07-09T11:11:17;6.95;;;3.33;;
75698;SDS011;64313;51.018;13.742;2023-07-09T11:13:54;7.15;;;3.13;;
75698;SDS011;64313;51.018;13.742;2023-07-09T11:16:27;7.35;;;3.35;;
75698;SDS011;64313;51.018;13.742;2023-07-09T11:18:58;5.28;;;2.80;;
75698;SDS011;64313;51.018;13.742;2023-07-09T11:21:26;6.20;;;3.50;;
75698;SDS011;64313;51.018;13.742;2023-07-09T11:23:58;6.22;;;3.15;;
75698;SDS011;64313;51.018;13.742;2023-07-09T11:26:27;5.38;;;3.28;;
75698;SDS011;64313;51.018;13.742;2023-07-09T11:31:35;5.05;;;3.30;;
75698;SDS011;64313;51.018;13.742;2023-07-09T11:36:32;5.53;;;3.20;;
75698;SDS011;64313;51.018;13.742;2023-07-09T11:38:57;6.25;;;3.40;;
75698;SDS011;64313;51.018;13.742;2023-07-09T11:43:52;5.35;;;3.20;;
75698;SDS011;64313;51.018;13.742;2023-07-09T11:46:18;6.68;;;3.33;;
75698;SDS011;64313;51.018;13.742;2023-07-09T11:48:49;6.78;;;3.13;;
75698;SDS011;64313;51.018;13.742;2023-07-09T11:51:18;6.10;;;3.33;;
75698;SDS011;64313;51.018;13.742;2023-07-09T11:53:49;5.72;;;3.20;;
75698;SDS011;64313;51.018;13.742;2023-07-09T11:56:20;6.57;;;3.10;;
75698;SDS011;64313;51.018;13.742;2023-07-09T12:01:18;5.07;;;2.90;;
75698;SDS011;64313;51.018;13.742;2023-07-09T12:03:46;6.05;;;3.10;;
75698;SDS011;64313;51.018;13.742;2023-07-09T12:06:16;5.90;;;3.17;;
75698;SDS011;64313;51.018;13.742;2023-07-09T12:08:55;7.43;;;3.30;;
75698;SDS011;64313;51.018;13.742;2023-07-09T12:11:42;5.50;;;3.35;;
75698;SDS011;64313;51.018;13.742;2023-07-09T12:14:10;5.72;;;3.10;;
75698;SDS011;64313;51.018;13.742;2023-07-09T12:16:40;6.13;;;3.10;;
75698;SDS011;64313;51.018;13.742;2023-07-09T12:19:10;5.85;;;3.30;;
75698;SDS011;64313;51.018;13.742;2023-07-09T12:21:38;6.50;;;3.08;;
75698;SDS011;64313;51.018;13.742;2023-07-09T12:24:18;7.88;;;3.22;;
75698;SDS011;64313;51.018;13.742;2023-07-09T12:26:54;6.95;;;2.97;;
75698;SDS011;64313;51.018;13.742;2023-07-09T12:29:30;6.47;;;3.20;;
75698;SDS011;64313;51.018;13.742;2023-07-09T12:32:02;5.63;;;2.80;;
75698;SDS011;64313;51.018;13.742;2023-07-09T12:34:35;7.68;;;3.10;;
75698;SDS011;64313;51.018;13.742;2023-07-09T12:37:00;6.80;;;2.97;;
75698;SDS011;64313;51.018;13.742;2023-07-09T12:39:26;7.63;;;3.05;;
75698;SDS011;64313;51.018;13.742;2023-07-09T12:41:59;6.15;;;3.22;;
75698;SDS011;64313;51.018;13.742;2023-07-09T12:44:26;6.78;;;2.92;;
75698;SDS011;64313;51.018;13.742;2023-07-09T12:46:58;5.55;;;2.85;;
75698;SDS011;64313;51.018;13.742;2023-07-09T12:49:28;6.05;;;3.00;;
75698;SDS011;64313;51.018;13.742;2023-07-09T12:51:55;6.07;;;3.08;;
75698;SDS011;64313;51.018;13.742;2023-07-09T12:54:30;5.90;;;2.97;;
75698;SDS011;64313;51.018;13.742;2023-07-09T12:56:56;7.35;;;3.50;;
75698;SDS011;64313;51.018;13.742;2023-07-09T13:04:40;6.57;;;2.95;;
75698;SDS011;64313;51.018;13.742;2023-07-09T13:09:50;7.10;;;3.00;;
75698;SDS011;64313;51.018;13.742;2023-07-09T13:12:17;5.88;;;3.10;;
75698;SDS011;64313;51.018;13.742;2023-07-09T13:14:46;9.70;;;3.35;;
75698;SDS011;64313;51.018;13.742;2023-07-09T13:17:18;8.82;;;3.10;;
75698;SDS011;64313;51.018;13.742;2023-07-09T13:19:43;6.25;;;3.05;;
75698;SDS011;64313;51.018;13.742;2023-07-09T13:22:11;5.75;;;3.30;;
75698;SDS011;64313;51.018;13.742;2023-07-09T13:24:38;5.85;;;2.97;;
75698;SDS011;64313;51.018;13.742;2023-07-09T13:27:04;6.50;;;3.13;;
75698;SDS011;64313;51.018;13.742;2023-07-09T13:29:31;6.80;;;3.20;;
75698;SDS011;64313;51.018;13.742;2023-07-09T13:31:58;6.20;;;3.10;;
75698;SDS011;64313;51.018;13.742;2023-07-09T13:34:24;5.75;;;2.90;;
75698;SDS011;64313;51.018;13.742;2023-07-09T13:36:52;5.18;;;2.92;;
75698;SDS011;64313;51.018;13.742;2023-07-09T13:39:19;6.68;;;3.33;;
75698;SDS011;64313;51.018;13.742;2023-07-09T13:41:45;7.82;;;2.95;;
75698;SDS011;64313;51.018;13.742;2023-07-09T13:44:14;6.88;;;3.05;;
75698;SDS011;64313;51.018;13.742;2023-07-09T13:46:41;5.90;;;3.30;;
75698;SDS011;64313;51.018;13.742;2023-07-09T13:49:14;5.60;;;3.00;;
75698;SDS011;64313;51.018;13.742;2023-07-09T13:51:43;5.88;;;3.17;;
75698;SDS011;64313;51.018;13.742;2023-07-09T13:56:46;5.82;;;3.28;;
75698;SDS011;64313;51.018;13.742;2023-07-09T13:59:22;6.45;;;3.25;;
75698;SDS011;64313;51.018;13.742;2023-07-09T14:01:50;9.57;;;3.20;;
75698;SDS011;64313;51.018;13.742;2023-07-09T14:04:18;5.38;;;2.95;;
75698;SDS011;64313;51.018;13.742;2023-07-09T14:06:44;6.68;;;3.10;;
75698;SDS011;64313;51.018;13.742;2023-07-09T14:09:11;6.10;;;3.20;;
75698;SDS011;64313;51.018;13.742;2023-07-09T14:11:38;6.47;;;3.60;;
75698;SDS011;64313;51.018;13.742;2023-07-09T14:14:20;7.53;;;3.20;;
75698;SDS011;64313;51.018;13.742;2023-07-09T14:16:49;6.07;;;3.45;;
75698;SDS011;64313;51.018;13.742;2023-07-09T14:19:17;5.93;;;2.97;;
75698;SDS011;64313;51.018;13.742;2023-07-09T14:21:44;6.18;;;3.33;;
75698;SDS011;64313;51.018;13.742;2023-07-09T14:24:21;7.90;;;3.25;;
75698;SDS011;64313;51.018;13.742;2023-07-09T14:26:48;6.43;;;3.28;;
75698;SDS011;64313;51.018;13.742;2023-07-09T14:29:15;7.28;;;3.72;;
75698;SDS011;64313;51.018;13.742;2023-07-09T14:31:41;5.85;;;3.08;;
75698;SDS011;64313;51.018;13.742;2023-07-09T14:34:16;7.32;;;3.35;;
75698;SDS011;64313;51.018;13.742;2023-07-09T14:36:45;6.28;;;3.38;;
75698;SDS011;64313;51.018;13.742;2023-07-09T14:39:12;8.07;;;3.38;;
75698;SDS011;64313;51.018;13.742;2023-07-09T14:41:37;5.82;;;3.50;;
75698;SDS011;64313;51.018;13.742;2023-07-09T14:44:05;6.13;;;3.53;;
75698;SDS011;64313;51.018;13.742;2023-07-09T14:46:49;6.80;;;3.30;;
75698;SDS011;64313;51.018;13.742;2023-07-09T14:49:16;5.57;;;3.10;;
75698;SDS011;64313;51.018;13.742;2023-07-09T14:51:42;7.82;;;3.70;;
75698;SDS011;64313;51.018;13.742;2023-07-09T14:54:29;6.15;;;3.20;;
75698;SDS011;64313;51.018;13.742;2023-07-09T14:56:55;7.78;;;3.70;;
75698;SDS011;64313;51.018;13.742;2023-07-09T14:59:22;5.72;;;3.53;;
75698;SDS011;64313;51.018;13.742;2023-07-09T15:01:48;7.00;;;3.40;;
75698;SDS011;64313;51.018;13.742;2023-07-09T15:04:32;6.60;;;3.65;;
75698;SDS011;64313;51.018;13.742;2023-07-09T15:06:58;7.57;;;3.15;;
75698;SDS011;64313;51.018;13.742;2023-07-09T15:09:26;6.28;;;3.05;;
75698;SDS011;64313;51.018;13.742;2023-07-09T15:11:53;6.28;;;3.30;;
75698;SDS011;64313;51.018;13.742;2023-07-09T15:14:20;6.05;;;3.45;;
75698;SDS011;64313;51.018;13.742;2023-07-09T15:16:47;6.80;;;3.67;;
75698;SDS011;64313;51.018;13.742;2023-07-09T15:19:15;7.32;;;3.65;;
75698;SDS011;64313;51.018;13.742;2023-07-09T15:21:42;6.50;;;3.80;;
75698;SDS011;64313;51.018;13.742;2023-07-09T15:24:10;6.57;;;3.80;;
75698;SDS011;64313;51.018;13.742;2023-07-09T15:26:41;5.82;;;3.40;;